Time;durP1;ratioP1;P1;durP2;ratioP2;P2;SDS_P1;SDS_P2;PMS_P1;PMS_P2;Temp;Humidity;BMP_temperature;BMP_pressure;BME280_temperature;BME280_humidity;BME280_pressure;Samples;Min_cycle;Max_cycle;Signal;HPM_P1;HPM_P2
2024/01/19 00:00:24;;;;;;;0.20;0.10;;;;;;;-1.05;96.48;100027.44;5051317;28;20493;-51
2024/01/19 00:02:50;;;;;;;0.20;0.10;;;;;;;-1.51;96.60;100028.47;5051039;28;20471;-50
2024/01/19 00:05:19;;;;;;;0.20;0.10;;;;;;;-1.53;97.32;100038.88;5051562;28;20493;-50
2024/01/19 00:07:46;;;;;;;0.20;0.10;;;;;;;-1.61;97.18;100042.25;5049300;28;20478;-50
2024/01/19 00:10:13;;;;;;;0.20;0.10;;;;;;;-1.54;97.80;100046.69;5035565;28;20454;-50
2024/01/19 00:12:39;;;;;;;0.20;0.10;;;;;;;-1.74;97.58;100051.59;5055192;28;20493;-50
2024/01/19 00:15:07;;;;;;;0.20;0.10;;;;;;;-1.83;97.52;100059.22;5053674;28;20872;-50
2024/01/19 00:17:33;;;;;;;0.20;0.10;;;;;;;-1.95;97.34;100067.69;5053639;28;20460;-50
2024/01/19 00:20:00;;;;;;;0.20;0.10;;;;;;;-2.05;97.45;100065.81;5055354;28;20487;-51
2024/01/19 00:22:27;;;;;;;0.20;0.10;;;;;;;-2.12;97.54;100064.78;5055162;28;20911;-50
2024/01/19 00:24:53;;;;;;;0.20;0.10;;;;;;;-2.03;97.71;100066.69;5048095;28;20479;-50
2024/01/19 00:27:20;;;;;;;0.20;0.10;;;;;;;-2.22;97.46;100068.06;5054709;28;21043;-51
2024/01/19 00:29:46;;;;;;;0.20;0.10;;;;;;;-2.33;97.29;100074.81;5055072;28;20537;-52
2024/01/19 00:32:13;;;;;;;0.20;0.10;;;;;;;-2.48;97.10;100069.28;5054661;28;20995;-50
2024/01/19 00:34:39;;;;;;;0.20;0.10;;;;;;;-2.72;96.87;100080.97;5046004;28;20447;-50
2024/01/19 00:37:07;;;;;;;0.20;0.10;;;;;;;-2.84;96.74;100078.09;5037399;28;20880;-50
2024/01/19 00:39:33;;;;;;;0.20;0.10;;;;;;;-2.89;96.01;100081.41;5054981;28;20512;-50
2024/01/19 00:42:00;;;;;;;0.20;0.10;;;;;;;-2.87;95.96;100080.63;5053904;28;20502;-50
2024/01/19 00:44:26;;;;;;;0.20;0.10;;;;;;;-2.91;95.69;100085.72;5043982;28;20486;-51
2024/01/19 00:46:53;;;;;;;0.20;0.10;;;;;;;-3.10;96.17;100090.50;5028971;28;20456;-50
2024/01/19 00:49:19;;;;;;;0.20;0.10;;;;;;;-3.26;95.47;100096.19;5055055;28;20804;-50
2024/01/19 00:51:46;;;;;;;0.20;0.10;;;;;;;-3.32;95.44;100094.31;5054397;28;20486;-50
2024/01/19 00:54:13;;;;;;;0.20;0.10;;;;;;;-3.50;95.34;100093.88;5054759;28;20490;-50
2024/01/19 00:56:39;;;;;;;0.20;0.10;;;;;;;-3.59;95.58;100102.31;5054408;28;20891;-49
2024/01/19 00:59:06;;;;;;;0.20;0.10;;;;;;;-3.64;95.99;100103.06;5054418;28;20458;-51
2024/01/19 01:01:32;;;;;;;0.20;0.10;;;;;;;-3.59;95.61;100101.44;5053991;28;20971;-50
2024/01/19 01:03:59;;;;;;;0.20;0.10;;;;;;;-3.76;95.22;100110.53;5054470;28;20509;-50
2024/01/19 01:06:26;;;;;;;0.20;0.10;;;;;;;-3.96;93.36;100108.31;5054295;28;20526;-50
2024/01/19 01:08:56;;;;;;;0.20;0.10;;;;;;;-4.13;93.52;100116.44;5044178;28;20530;-51
2024/01/19 01:11:22;;;;;;;0.20;0.10;;;;;;;-4.33;93.68;100118.50;5051100;28;20466;-50
2024/01/19 01:13:49;;;;;;;0.20;0.10;;;;;;;-4.53;93.22;100121.41;5054153;28;20451;-49
2024/01/19 01:16:15;;;;;;;0.20;0.10;;;;;;;-4.74;93.83;100131.16;5040370;28;20537;-50
2024/01/19 01:18:42;;;;;;;0.20;0.10;;;;;;;-4.82;92.96;100133.50;5053785;28;20453;-50
2024/01/19 01:21:08;;;;;;;0.20;0.10;;;;;;;-4.85;94.00;100135.13;5053408;28;20470;-50
2024/01/19 01:23:35;;;;;;;0.20;0.10;;;;;;;-4.86;93.34;100146.34;5053960;28;20478;-50
2024/01/19 01:26:01;;;;;;;0.20;0.10;;;;;;;-5.09;91.67;100150.78;5040809;28;21022;-50
2024/01/19 01:28:28;;;;;;;0.20;0.10;;;;;;;-5.13;92.30;100148.94;5054026;28;20533;-50
2024/01/19 01:30:54;;;;;;;0.20;0.10;;;;;;;-5.13;92.51;100155.00;5053876;28;20520;-50
2024/01/19 01:33:21;;;;;;;0.20;0.10;;;;;;;-5.41;91.71;100163.59;5053905;28;20687;-51
2024/01/19 01:35:47;;;;;;;0.20;0.10;;;;;;;-5.38;91.54;100171.47;5047518;28;20509;-50
2024/01/19 01:38:14;;;;;;;0.20;0.10;;;;;;;-5.44;91.96;100178.16;5031655;28;20461;-50
2024/01/19 01:40:41;;;;;;;0.20;0.10;;;;;;;-5.66;92.00;100186.91;5040638;28;20455;-49
2024/01/19 01:43:07;;;;;;;0.20;0.10;;;;;;;-5.75;92.35;100200.41;5053791;28;20455;-49
2024/01/19 01:45:34;;;;;;;0.20;0.10;;;;;;;-5.75;91.90;100204.72;5044312;28;20495;-50
2024/01/19 01:48:01;;;;;;;0.20;0.10;;;;;;;-5.85;92.21;100210.38;5042478;28;20569;-49
2024/01/19 01:50:28;;;;;;;0.20;0.10;;;;;;;-5.57;92.04;100210.53;5053699;28;20541;-51
2024/01/19 01:52:54;;;;;;;0.20;0.10;;;;;;;-5.74;92.17;100211.66;5035584;28;20479;-49
2024/01/19 01:55:21;;;;;;;0.20;0.10;;;;;;;-5.96;91.66;100217.78;5053540;28;20449;-50
2024/01/19 01:57:48;;;;;;;0.20;0.10;;;;;;;-5.97;91.93;100223.78;5053588;28;20455;-50
2024/01/19 02:00:16;;;;;;;0.20;0.10;;;;;;;-6.19;91.65;100209.19;5053648;28;20542;-49
2024/01/19 02:02:43;;;;;;;0.20;0.10;;;;;;;-6.16;91.90;100226.53;5053131;28;20553;-50
2024/01/19 02:05:10;;;;;;;0.20;0.10;;;;;;;-6.27;93.13;100226.13;5053424;28;20498;-50
2024/01/19 02:07:37;;;;;;;0.20;0.10;;;;;;;-6.19;92.45;100229.88;5053121;28;20446;-50
2024/01/19 02:10:04;;;;;;;0.20;0.10;;;;;;;-6.32;92.35;100235.41;5053502;28;20447;-49
2024/01/19 02:12:31;;;;;;;0.20;0.10;;;;;;;-6.29;91.73;100244.19;5026455;28;20907;-50
2024/01/19 02:14:57;;;;;;;0.20;0.10;;;;;;;-6.52;90.20;100234.66;5053280;28;20529;-49
2024/01/19 02:17:26;;;;;;;0.20;0.10;;;;;;;-6.60;90.23;100236.94;5044082;28;20489;-49
2024/01/19 02:19:53;;;;;;;0.20;0.10;;;;;;;-6.62;90.75;100237.72;5053134;28;20532;-50
2024/01/19 02:22:20;;;;;;;0.20;0.10;;;;;;;-6.68;90.32;100240.06;5052593;28;20467;-50
2024/01/19 02:24:47;;;;;;;0.20;0.10;;;;;;;-6.86;90.20;100248.84;5046655;28;20961;-49
2024/01/19 02:27:14;;;;;;;0.20;0.13;;;;;;;-6.75;90.32;100248.38;5049250;28;20513;-50
2024/01/19 02:29:49;;;;;;;0.20;0.10;;;;;;;-6.90;90.93;100252.13;5052946;28;20862;-49
2024/01/19 02:32:16;;;;;;;0.20;0.10;;;;;;;-7.04;91.19;100258.44;5052563;28;20477;-51
2024/01/19 02:34:45;;;;;;;0.20;0.10;;;;;;;-6.84;90.74;100253.22;5051818;28;20482;-50
2024/01/19 02:37:13;;;;;;;0.20;0.10;;;;;;;-6.94;90.49;100259.69;5034738;28;20534;-50
2024/01/19 02:39:40;;;;;;;0.10;0.10;;;;;;;-7.02;90.94;100254.22;5044810;28;20929;-49
2024/01/19 02:42:07;;;;;;;0.20;0.10;;;;;;;-6.82;90.96;100264.47;5052631;28;20470;-50
2024/01/19 02:44:34;;;;;;;0.20;0.10;;;;;;;-6.94;90.76;100267.44;5052515;28;20802;-50
2024/01/19 02:47:00;;;;;;;0.10;0.10;;;;;;;-7.03;90.74;100260.19;5030268;28;20494;-50
2024/01/19 02:49:27;;;;;;;0.10;0.10;;;;;;;-6.99;90.90;100266.34;5052362;28;20508;-50
2024/01/19 02:51:53;;;;;;;0.20;0.10;;;;;;;-7.17;90.46;100258.75;5044194;28;20494;-50
2024/01/19 02:54:20;;;;;;;0.10;0.10;;;;;;;-7.23;89.33;100263.66;5049519;28;20472;-50
2024/01/19 02:56:46;;;;;;;0.20;0.10;;;;;;;-7.35;89.23;100261.44;5050039;28;20453;-49
2024/01/19 02:59:13;;;;;;;0.20;0.10;;;;;;;-7.35;89.56;100261.44;5045126;28;20891;-50
2024/01/19 03:01:39;;;;;;;0.10;0.10;;;;;;;-7.44;89.37;100255.00;5051892;28;20471;-49
2024/01/19 03:04:05;;;;;;;0.10;0.10;;;;;;;-7.43;89.40;100254.19;5052031;28;20533;-50
2024/01/19 03:06:32;;;;;;;0.20;0.10;;;;;;;-7.47;90.14;100261.81;5052159;28;20513;-50
2024/01/19 03:08:58;;;;;;;0.10;0.10;;;;;;;-7.68;89.90;100254.84;5049646;28;20548;-49
2024/01/19 03:11:25;;;;;;;0.20;0.10;;;;;;;-7.68;89.79;100263.47;5051446;28;20470;-50
2024/01/19 03:13:53;;;;;;;0.10;0.10;;;;;;;-7.56;90.11;100261.41;5052143;28;20497;-49
2024/01/19 03:16:19;;;;;;;0.10;0.10;;;;;;;-7.65;89.98;100263.63;5042537;28;20498;-50
2024/01/19 03:18:45;;;;;;;0.10;0.10;;;;;;;-7.69;89.84;100258.22;5051870;28;20453;-49
2024/01/19 03:21:12;;;;;;;0.10;0.10;;;;;;;-7.54;88.60;100264.06;5039739;28;20464;-49
2024/01/19 03:23:39;;;;;;;0.10;0.10;;;;;;;-7.84;88.14;100261.03;5032990;28;20944;-49
2024/01/19 03:26:05;;;;;;;0.10;0.10;;;;;;;-7.98;89.48;100262.13;5051890;28;20870;-49
2024/01/19 03:28:32;;;;;;;0.10;0.10;;;;;;;-7.77;88.72;100263.06;5046152;28;20451;-50
2024/01/19 03:30:58;;;;;;;0.10;0.10;;;;;;;-8.05;88.32;100273.88;5034035;28;20557;-49
2024/01/19 03:33:25;;;;;;;0.10;0.10;;;;;;;-7.99;88.70;100276.69;5051504;28;20940;-50
2024/01/19 03:35:51;;;;;;;0.10;0.10;;;;;;;-7.96;89.18;100278.53;5041510;28;20451;-49
2024/01/19 03:38:18;;;;;;;0.10;0.10;;;;;;;-7.93;89.64;100281.28;5032651;28;20502;-49
2024/01/19 03:40:46;;;;;;;0.10;0.10;;;;;;;-7.97;89.60;100277.66;5039837;28;20954;-50
2024/01/19 03:43:12;;;;;;;0.10;0.10;;;;;;;-8.07;89.71;100291.84;5051495;28;20442;-48
2024/01/19 03:45:39;;;;;;;0.10;0.10;;;;;;;-8.00;89.86;100302.44;5040406;28;20480;-50
2024/01/19 03:48:07;;;;;;;0.10;0.10;;;;;;;-7.88;89.74;100290.09;5040511;28;20458;-49
2024/01/19 03:50:34;;;;;;;0.10;0.10;;;;;;;-7.93;89.65;100296.75;5051579;28;20533;-49
2024/01/19 03:53:00;;;;;;;0.10;0.10;;;;;;;-8.08;89.66;100295.25;5051237;28;20494;-49
2024/01/19 03:55:27;;;;;;;0.10;0.10;;;;;;;-8.07;89.71;100291.84;5051435;28;20946;-49
2024/01/19 03:57:53;;;;;;;0.10;0.10;;;;;;;-8.07;90.27;100291.84;5051294;28;20450;-49
2024/01/19 04:00:19;;;;;;;0.10;0.10;;;;;;;-8.30;89.34;100302.78;5046416;28;20903;-50
2024/01/19 04:02:46;;;;;;;0.20;0.10;;;;;;;-8.24;89.13;100302.19;5046508;28;20568;-49
2024/01/19 04:05:13;;;;;;;0.10;0.10;;;;;;;-8.34;89.12;100307.78;5051382;28;20451;-49
2024/01/19 04:07:39;;;;;;;0.10;0.10;;;;;;;-8.40;89.23;100311.81;5042625;28;20887;-50
2024/01/19 04:10:06;;;;;;;0.10;0.10;;;;;;;-8.44;89.83;100306.44;5051412;28;20451;-49
2024/01/19 04:12:32;;;;;;;0.10;0.10;;;;;;;-8.18;88.62;100305.94;5047591;28;20538;-49
2024/01/19 04:15:03;;;;;;;0.10;0.10;;;;;;;-8.30;89.00;100304.47;5032123;28;20991;-49
2024/01/19 04:17:30;;;;;;;0.10;0.10;;;;;;;-6.78;92.23;100305.09;5030566;28;20566;-51
2024/01/19 04:19:57;;;;;;;0.13;0.10;;;;;;;-6.42;89.49;100314.34;5051151;28;20454;-50
2024/01/19 04:22:25;;;;;;;0.10;0.10;;;;;;;-7.42;85.79;100313.63;5035751;28;20892;-49
2024/01/19 04:24:51;;;;;;;0.10;0.10;;;;;;;-7.72;86.79;100318.31;5051364;28;20455;-50
2024/01/19 04:27:18;;;;;;;0.10;0.10;;;;;;;-8.04;87.54;100321.16;5051005;28;20490;-49
2024/01/19 04:29:45;;;;;;;0.10;0.10;;;;;;;-8.14;87.06;100332.72;5051165;28;20481;-50
2024/01/19 04:32:11;;;;;;;0.10;0.10;;;;;;;-8.13;87.38;100322.50;5050955;28;20520;-49
2024/01/19 04:34:38;;;;;;;0.10;0.10;;;;;;;-8.20;87.35;100320.47;5050991;28;21022;-49
2024/01/19 04:37:04;;;;;;;0.10;0.10;;;;;;;-8.32;87.03;100321.56;5034397;28;20472;-49
2024/01/19 04:39:30;;;;;;;0.10;0.10;;;;;;;-8.21;87.44;100321.28;5041823;28;20539;-49
2024/01/19 04:41:57;;;;;;;0.10;0.10;;;;;;;-8.40;87.99;100329.84;5050806;28;20467;-50
2024/01/19 04:44:23;;;;;;;0.10;0.10;;;;;;;-8.28;87.89;100328.63;5051219;28;20450;-50
2024/01/19 04:46:50;;;;;;;0.10;0.10;;;;;;;-8.53;87.60;100334.34;5029577;28;20494;-49
2024/01/19 04:49:16;;;;;;;0.10;0.10;;;;;;;-8.46;88.33;100341.56;5038798;28;20453;-49
2024/01/19 04:51:43;;;;;;;0.10;0.10;;;;;;;-8.51;88.06;100340.44;5050513;28;21048;-50
2024/01/19 04:54:09;;;;;;;0.10;0.10;;;;;;;-8.63;88.08;100345.94;5051418;28;20893;-51
2024/01/19 04:56:36;;;;;;;0.10;0.10;;;;;;;-8.75;88.93;100353.94;5051023;28;20956;-49
2024/01/19 04:59:02;;;;;;;0.10;0.10;;;;;;;-8.22;90.57;100345.28;5054925;28;20545;-50
2024/01/19 05:01:29;;;;;;;0.10;0.10;;;;;;;-8.01;90.93;100347.06;5054439;28;20471;-50
2024/01/19 05:03:55;;;;;;;0.10;0.10;;;;;;;-8.20;89.78;100359.13;5054668;28;20461;-49
2024/01/19 05:06:22;;;;;;;0.10;0.10;;;;;;;-8.38;89.12;100366.00;5054319;28;20518;-50
2024/01/19 05:08:48;;;;;;;0.10;0.10;;;;;;;-8.55;87.57;100359.16;5054463;28;20541;-49
2024/01/19 05:11:15;;;;;;;0.20;0.10;;;;;;;-8.68;87.17;100367.97;5053913;28;20561;-50
2024/01/19 05:13:41;;;;;;;0.10;0.10;;;;;;;-8.78;87.13;100371.78;5054507;28;20477;-49
2024/01/19 05:16:08;;;;;;;0.10;0.10;;;;;;;-8.90;87.78;100371.22;5052694;28;20438;-49
2024/01/19 05:18:35;;;;;;;0.10;0.10;;;;;;;-8.63;88.52;100374.25;5054331;28;20494;-51
2024/01/19 05:21:01;;;;;;;0.10;0.10;;;;;;;-8.76;88.97;100380.50;5053892;28;20994;-49
2024/01/19 05:23:29;;;;;;;0.10;0.10;;;;;;;-8.64;88.84;100381.88;5054166;28;20446;-49
2024/01/19 05:25:56;;;;;;;0.10;0.10;;;;;;;-8.76;88.29;100382.19;5027458;28;20501;-50
2024/01/19 05:28:22;;;;;;;0.10;0.10;;;;;;;-8.80;87.40;100382.81;5053963;28;20447;-49
2024/01/19 05:30:48;;;;;;;0.10;0.10;;;;;;;-8.85;86.90;100398.06;5053576;28;20944;-49
2024/01/19 05:33:15;;;;;;;0.10;0.10;;;;;;;-9.06;87.36;100395.28;5054017;28;20457;-50
2024/01/19 05:35:42;;;;;;;0.10;0.10;;;;;;;-8.88;87.96;100399.59;5048520;28;20452;-50
2024/01/19 05:38:08;;;;;;;0.10;0.10;;;;;;;-8.95;88.04;100398.41;5034027;28;20448;-50
2024/01/19 05:40:35;;;;;;;0.10;0.10;;;;;;;-9.21;87.04;100406.47;5053167;28;20461;-50
2024/01/19 05:43:01;;;;;;;0.10;0.10;;;;;;;-9.24;88.00;100404.63;5054020;28;20454;-50
2024/01/19 05:45:28;;;;;;;0.10;0.10;;;;;;;-9.12;87.53;100410.41;5053536;28;20451;-50
2024/01/19 05:47:54;;;;;;;0.10;0.10;;;;;;;-9.19;87.77;100418.59;5040613;28;20451;-49
2024/01/19 05:50:21;;;;;;;0.10;0.10;;;;;;;-9.07;89.25;100420.94;5053441;28;20477;-52
2024/01/19 05:52:47;;;;;;;0.10;0.10;;;;;;;-9.13;88.66;100425.78;5053275;28;20506;-49
2024/01/19 05:55:14;;;;;;;0.10;0.10;;;;;;;-8.98;88.31;100429.13;5053686;28;20455;-50
2024/01/19 05:57:40;;;;;;;0.10;0.10;;;;;;;-9.17;87.32;100440.19;5053295;28;21038;-49
2024/01/19 06:00:07;;;;;;;0.10;0.10;;;;;;;-9.17;87.45;100441.88;5053597;28;20504;-49
2024/01/19 06:02:34;;;;;;;0.10;0.10;;;;;;;-9.12;87.20;100440.41;5053081;28;20473;-50
2024/01/19 06:05:00;;;;;;;0.10;0.10;;;;;;;-9.07;88.03;100447.56;5039357;28;20448;-50
2024/01/19 06:07:27;;;;;;;0.10;0.10;;;;;;;-9.19;87.04;100456.31;5040822;28;20862;-50
2024/01/19 06:09:54;;;;;;;0.10;0.10;;;;;;;-9.33;86.68;100464.19;5053159;28;20447;-50
2024/01/19 06:12:20;;;;;;;0.10;0.10;;;;;;;-9.13;87.81;100460.13;5053122;28;20475;-49
2024/01/19 06:14:47;;;;;;;0.20;0.10;;;;;;;-9.40;87.31;100476.69;5053241;28;20454;-50
2024/01/19 06:17:16;;;;;;;0.10;0.10;;;;;;;-9.20;87.41;100476.03;5052647;28;21013;-49
2024/01/19 06:19:43;;;;;;;0.10;0.10;;;;;;;-9.43;86.50;100486.81;5053038;28;20932;-49
2024/01/19 06:22:10;;;;;;;0.10;0.10;;;;;;;-9.50;87.46;100487.28;5052748;28;20887;-49
2024/01/19 06:24:36;;;;;;;0.10;0.10;;;;;;;-9.40;87.82;100490.44;5053400;28;20443;-49
2024/01/19 06:27:03;;;;;;;0.10;0.10;;;;;;;-9.28;88.09;100495.34;5052883;28;20942;-49
2024/01/19 06:29:30;;;;;;;0.10;0.10;;;;;;;-9.23;87.60;100503.31;5053026;28;20842;-49
2024/01/19 06:31:57;;;;;;;0.10;0.10;;;;;;;-9.06;88.61;100507.66;5052572;28;20474;-49
2024/01/19 06:34:24;;;;;;;0.60;0.60;;;;;;;-8.84;88.87;100499.38;5052770;28;20534;-49
2024/01/19 06:36:50;;;;;;;0.10;0.10;;;;;;;-9.04;87.88;100512.09;5037825;28;20458;-49
2024/01/19 06:39:17;;;;;;;0.10;0.10;;;;;;;-9.10;86.92;100516.00;5041707;28;20926;-49
2024/01/19 06:41:44;;;;;;;0.10;0.10;;;;;;;-9.29;87.09;100522.75;5052410;28;20470;-49
2024/01/19 06:44:12;;;;;;;0.10;0.10;;;;;;;-9.29;87.95;100527.03;5052625;28;20455;-49
2024/01/19 06:46:43;;;;;;;0.10;0.10;;;;;;;-9.07;88.13;100536.75;5038172;28;20489;-48
2024/01/19 06:49:10;;;;;;;0.10;0.10;;;;;;;-9.28;87.37;100536.50;5052325;28;20450;-50
2024/01/19 06:51:36;;;;;;;0.10;0.10;;;;;;;-9.19;87.65;100542.13;5052134;28;20475;-49
2024/01/19 06:54:03;;;;;;;0.10;0.10;;;;;;;-9.35;87.42;100545.56;5052535;28;20489;-49
2024/01/19 06:56:29;;;;;;;0.10;0.10;;;;;;;-9.59;86.31;100551.97;5052209;28;20489;-50
2024/01/19 06:58:56;;;;;;;0.10;0.10;;;;;;;-9.12;88.21;100554.53;5052208;28;20859;-49
2024/01/19 07:01:25;;;;;;;0.10;0.10;;;;;;;-9.05;87.65;100558.31;5051785;28;20516;-49
2024/01/19 07:03:51;;;;;;;0.10;0.10;;;;;;;-9.30;87.07;100562.16;5051886;28;20536;-49
2024/01/19 07:06:18;;;;;;;0.10;0.10;;;;;;;-8.94;87.85;100569.19;5052191;28;20513;-49
2024/01/19 07:08:46;;;;;;;0.10;0.10;;;;;;;-8.82;88.77;100573.31;5052126;28;20529;-50
2024/01/19 07:11:12;;;;;;;0.10;0.10;;;;;;;-8.89;88.01;100575.50;5051783;28;20478;-50
2024/01/19 07:13:39;;;;;;;0.10;0.10;;;;;;;-8.94;88.58;100575.22;5052035;28;20534;-48
2024/01/19 07:16:07;;;;;;;0.10;0.10;;;;;;;-8.90;88.74;100579.75;5051148;28;20500;-48
2024/01/19 07:18:36;;;;;;;0.10;0.10;;;;;;;-8.53;89.35;100584.25;5051977;28;20453;-50
2024/01/19 07:21:03;;;;;;;0.10;0.10;;;;;;;-8.72;88.19;100588.44;5051069;28;20471;-49
2024/01/19 07:23:29;;;;;;;0.10;0.10;;;;;;;-7.75;89.29;100589.06;5051776;28;20486;-50
2024/01/19 07:25:57;;;;;;;0.10;0.10;;;;;;;-7.44;88.19;100598.28;5051649;28;20447;-50
2024/01/19 07:28:24;;;;;;;0.20;0.20;;;;;;;-7.37;85.29;100601.22;5051735;28;20455;-49
2024/01/19 07:30:50;;;;;;;0.10;0.10;;;;;;;-7.01;85.28;100594.31;5051259;28;20455;-50
2024/01/19 07:33:16;;;;;;;0.10;0.10;;;;;;;-7.85;85.35;100598.03;5051914;28;20538;-49
2024/01/19 07:35:54;;;;;;;0.10;0.10;;;;;;;-8.47;84.95;100600.94;5044657;28;20963;-49
2024/01/19 07:38:21;;;;;;;0.10;0.10;;;;;;;-8.69;85.41;100614.38;5032877;28;21071;-49
2024/01/19 07:40:47;;;;;;;0.10;0.10;;;;;;;-8.79;85.74;100612.09;5052143;28;20869;-49
2024/01/19 07:43:14;;;;;;;0.10;0.10;;;;;;;-8.80;86.36;100618.06;5051308;28;20453;-50
2024/01/19 07:45:40;;;;;;;0.13;0.10;;;;;;;-8.85;86.79;100619.50;5049119;28;20542;-50
2024/01/19 07:48:06;;;;;;;0.10;0.10;;;;;;;-8.73;87.54;100621.84;5040515;28;20518;-49
2024/01/19 07:50:33;;;;;;;0.10;0.10;;;;;;;-8.63;88.51;100620.63;5051460;28;20460;-50
2024/01/19 07:52:59;;;;;;;0.20;0.10;;;;;;;-8.56;87.50;100631.34;5051282;28;20459;-51
2024/01/19 07:55:26;;;;;;;0.10;0.10;;;;;;;-8.63;87.17;100636.09;5051546;28;20451;-50
2024/01/19 07:57:53;;;;;;;0.10;0.10;;;;;;;-8.52;87.79;100634.97;5051081;28;20446;-49
2024/01/19 08:00:19;;;;;;;0.10;0.10;;;;;;;-8.31;88.08;100638.66;5051891;28;20864;-49
2024/01/19 08:02:46;;;;;;;0.10;0.10;;;;;;;-8.11;89.53;100634.50;5051122;28;20513;-49
2024/01/19 08:05:12;;;;;;;0.10;0.10;;;;;;;-8.08;89.90;100637.28;5051498;28;20515;-48
2024/01/19 08:07:40;;;;;;;0.10;0.10;;;;;;;-7.94;90.06;100641.44;5051067;28;20497;-49
2024/01/19 08:10:07;;;;;;;0.10;0.10;;;;;;;-7.81;89.72;100640.34;5051261;28;20466;-49
2024/01/19 08:12:34;;;;;;;0.10;0.10;;;;;;;-7.55;90.46;100639.91;5050858;28;20574;-49
2024/01/19 08:15:00;;;;;;;0.10;0.10;;;;;;;-7.33;91.22;100646.16;5051405;28;20504;-50
2024/01/19 08:17:27;;;;;;;0.10;0.10;;;;;;;-7.21;91.66;100654.47;5050524;28;20500;-50
2024/01/19 08:19:54;;;;;;;0.10;0.10;;;;;;;-7.30;90.39;100654.03;5051305;28;20454;-50
2024/01/19 08:22:21;;;;;;;0.10;0.10;;;;;;;-7.11;90.92;100655.81;5050804;28;20474;-49
2024/01/19 08:24:47;;;;;;;0.10;0.10;;;;;;;-6.59;90.99;100652.25;5033490;28;20906;-50
2024/01/19 08:27:14;;;;;;;0.10;0.10;;;;;;;-6.51;90.88;100651.72;5050905;28;20500;-50
2024/01/19 08:29:40;;;;;;;0.10;0.10;;;;;;;-6.30;91.21;100661.34;5051262;28;20456;-49
2024/01/19 08:32:07;;;;;;;0.10;0.10;;;;;;;-6.09;91.38;100666.56;5052384;28;20475;-50
2024/01/19 08:34:34;;;;;;;0.10;0.10;;;;;;;-5.86;91.53;100674.41;5055111;28;20475;-50
2024/01/19 08:37:01;;;;;;;3.93;3.80;;;;;;;-5.76;91.72;100681.72;5038707;28;20444;-50
2024/01/19 08:39:27;;;;;;;0.20;0.10;;;;;;;-5.47;92.16;100681.28;5045336;28;20910;-49
2024/01/19 08:41:54;;;;;;;0.10;0.10;;;;;;;-5.00;92.56;100689.22;5054868;28;20907;-49
2024/01/19 08:44:21;;;;;;;0.20;0.10;;;;;;;-4.85;93.54;100703.66;5055275;28;20446;-50
2024/01/19 08:46:48;;;;;;;0.20;0.10;;;;;;;-4.68;94.17;100696.53;5042748;28;20495;-49
2024/01/19 08:49:14;;;;;;;0.20;0.10;;;;;;;-4.56;93.70;100703.91;5054696;28;20485;-50
2024/01/19 08:51:43;;;;;;;0.20;0.10;;;;;;;-4.65;93.63;100703.56;5055002;28;20482;-52
2024/01/19 08:54:11;;;;;;;0.20;0.10;;;;;;;-4.64;94.06;100710.53;5054657;28;20499;-53
2024/01/19 08:56:38;;;;;;;0.20;0.10;;;;;;;-3.85;94.24;100704.81;5054434;28;20546;-54
2024/01/19 08:59:17;;;;;;;0.20;0.10;;;;;;;-4.26;92.38;100718.03;5054494;28;20446;-53
2024/01/19 09:01:46;;;;;;;0.20;0.10;;;;;;;-4.32;93.30;100719.53;5054507;28;20528;-53
2024/01/19 09:04:12;;;;;;;0.20;0.10;;;;;;;-4.18;93.57;100728.72;5054745;28;20896;-53
2024/01/19 09:06:39;;;;;;;0.20;0.10;;;;;;;-4.24;93.68;100728.50;5054307;28;20539;-53
2024/01/19 09:09:10;;;;;;;0.20;0.10;;;;;;;-4.23;92.88;100730.28;5054310;28;20451;-53
2024/01/19 09:11:39;;;;;;;0.20;0.10;;;;;;;-4.25;94.17;100729.28;5054462;28;20474;-53
2024/01/19 09:14:09;;;;;;;0.20;0.10;;;;;;;-3.94;94.25;100736.53;5054319;28;20451;-53
2024/01/19 09:16:41;;;;;;;0.20;0.10;;;;;;;-3.76;94.78;100728.53;5035826;28;20543;-53
2024/01/19 09:19:08;;;;;;;0.20;0.10;;;;;;;-3.53;94.28;100737.13;5048518;28;21006;-54
2024/01/19 09:21:34;;;;;;;0.20;0.10;;;;;;;-3.44;94.94;100735.72;5054344;28;20955;-53
2024/01/19 09:24:01;;;;;;;0.20;0.10;;;;;;;-3.33;94.84;100741.28;5054121;28;20546;-53
2024/01/19 09:26:28;;;;;;;0.20;0.10;;;;;;;-3.21;94.18;100746.03;5054120;28;20469;-53
2024/01/19 09:28:54;;;;;;;0.20;0.10;;;;;;;-3.20;95.04;100747.78;5053899;28;20505;-53
2024/01/19 09:31:21;;;;;;;0.20;0.10;;;;;;;-3.19;95.66;100753.03;5053816;28;20471;-53
2024/01/19 09:33:48;;;;;;;0.20;0.10;;;;;;;-3.01;94.71;100758.88;5053657;28;20454;-53
2024/01/19 09:36:14;;;;;;;0.20;0.10;;;;;;;-2.88;94.44;100767.06;5043980;28;20956;-53
2024/01/19 09:38:41;;;;;;;0.20;0.10;;;;;;;-2.70;94.49;100778.97;5038074;28;20443;-54
2024/01/19 09:41:30;;;;;;;0.20;0.10;;;;;;;-2.40;94.74;100784.25;5053828;28;20474;-53
2024/01/19 09:43:58;;;;;;;0.20;0.10;;;;;;;-2.38;94.33;100786.91;5053311;28;20446;-54
2024/01/19 09:46:28;;;;;;;0.20;0.10;;;;;;;-2.23;94.30;100786.50;5040489;28;20491;-53
2024/01/19 09:49:19;;;;;;;0.20;0.10;;;;;;;-2.12;94.53;100787.72;5053707;28;20577;-53
2024/01/19 09:51:56;;;;;;;0.20;0.10;;;;;;;-1.92;95.49;100785.69;5053658;28;20491;-53
2024/01/19 09:54:33;;;;;;;0.20;0.10;;;;;;;-2.02;95.93;100791.50;5053912;28;20532;-53
2024/01/19 09:57:03;;;;;;;0.20;0.20;;;;;;;-1.93;97.51;100787.41;5029789;28;21077;-53
2024/01/19 09:59:31;;;;;;;0.20;0.10;;;;;;;-2.09;98.26;100778.28;5053438;28;20947;-53
2024/01/19 10:01:59;;;;;;;0.20;0.10;;;;;;;-1.99;98.94;100778.56;5053411;28;20477;-54
2024/01/19 10:04:27;;;;;;;0.83;0.83;;;;;;;-1.89;99.37;100783.22;5053318;28;20447;-53
2024/01/19 10:06:55;;;;;;;0.20;0.10;;;;;;;-1.60;97.88;100784.94;5053430;28;20458;-53
2024/01/19 10:09:22;;;;;;;0.20;0.10;;;;;;;-1.57;97.82;100790.22;5053377;28;20451;-53
2024/01/19 10:11:53;;;;;;;0.20;0.10;;;;;;;-1.42;97.55;100788.88;5053158;28;21086;-54
2024/01/19 10:14:21;;;;;;;0.20;0.10;;;;;;;-1.22;96.35;100791.19;5035407;28;20777;-52
2024/01/19 10:16:48;;;;;;;0.20;0.10;;;;;;;-0.97;95.79;100799.66;5052573;28;20446;-53
2024/01/19 10:19:16;;;;;;;0.20;0.10;;;;;;;-1.10;94.58;100801.06;5053008;28;20478;-53
2024/01/19 10:21:43;;;;;;;0.20;0.10;;;;;;;-1.07;95.08;100813.31;5052926;28;20475;-53
2024/01/19 10:24:11;;;;;;;0.20;0.10;;;;;;;-1.05;95.72;100817.72;5052977;28;20533;-52
2024/01/19 10:26:38;;;;;;;0.20;0.10;;;;;;;-1.07;96.19;100824.63;5053038;28;20447;-53
2024/01/19 10:29:17;;;;;;;0.20;0.10;;;;;;;-0.84;95.55;100808.69;5052921;28;21030;-53
2024/01/19 10:31:48;;;;;;;0.20;0.10;;;;;;;-0.84;96.12;100813.91;5052765;28;20560;-52
2024/01/19 10:34:20;;;;;;;0.20;0.10;;;;;;;-0.84;96.19;100812.16;5027609;28;20451;-52
2024/01/19 10:36:48;;;;;;;0.20;0.10;;;;;;;-0.58;95.36;100820.66;5038428;28;20827;-53
2024/01/19 10:39:20;;;;;;;0.20;0.10;;;;;;;-0.42;94.94;100825.41;5041589;28;20513;-52
2024/01/19 10:41:48;;;;;;;0.20;0.10;;;;;;;-0.42;94.07;100827.13;5052835;28;20502;-53
2024/01/19 10:44:20;;;;;;;0.20;0.10;;;;;;;-0.25;94.30;100822.34;5052698;28;20467;-53
2024/01/19 10:46:49;;;;;;;0.20;0.10;;;;;;;-0.36;94.43;100822.97;5036057;28;20517;-54
2024/01/19 10:49:16;;;;;;;0.20;0.10;;;;;;;-0.07;93.70;100826.25;5024390;28;20949;-52
2024/01/19 10:51:44;;;;;;;0.20;0.10;;;;;;;-0.30;94.68;100832.66;5050180;28;20829;-53
2024/01/19 10:54:17;;;;;;;0.20;0.10;;;;;;;-0.08;94.69;100832.31;5051854;28;20879;-53
2024/01/19 10:56:45;;;;;;;0.30;0.20;;;;;;;-0.01;93.62;100825.50;5052236;28;20450;-53
2024/01/19 10:59:13;;;;;;;0.20;0.10;;;;;;;-0.19;93.76;100825.09;5052221;28;20505;-52
2024/01/19 11:01:40;;;;;;;0.20;0.10;;;;;;;-0.02;93.99;100839.41;5052065;28;20477;-54
2024/01/19 11:04:09;;;;;;;0.20;0.10;;;;;;;0.10;93.63;100844.91;5052357;28;20538;-53
2024/01/19 11:06:37;;;;;;;0.20;0.10;;;;;;;0.06;94.04;100844.81;5026126;28;20450;-54
2024/01/19 11:09:07;;;;;;;0.20;0.10;;;;;;;0.03;93.84;100850.88;5051861;28;20853;-53
2024/01/19 11:11:58;;;;;;;0.20;0.10;;;;;;;0.10;94.35;100846.66;5052004;28;20471;-53
2024/01/19 11:14:27;;;;;;;0.20;0.10;;;;;;;0.26;93.36;100852.25;5052141;28;20823;-53
2024/01/19 11:16:56;;;;;;;0.20;0.10;;;;;;;0.25;95.18;100841.75;5044594;28;20459;-53
2024/01/19 11:19:23;;;;;;;0.20;0.10;;;;;;;0.12;93.95;100840.59;5050328;28;20453;-53
2024/01/19 11:21:51;;;;;;;0.20;0.10;;;;;;;0.04;95.73;100844.78;5051813;28;20493;-52
2024/01/19 11:24:20;;;;;;;0.20;0.10;;;;;;;0.34;95.44;100843.69;5051713;28;20508;-52
2024/01/19 11:27:01;;;;;;;0.20;0.13;;;;;;;0.52;95.06;100842.34;5052037;28;20545;-53